TimeEDT,TemperatureF,Dew PointF,Humidity,Sea Level PressureIn,VisibilityMPH,Wind Direction,Wind SpeedMPH,Gust SpeedMPH,PrecipitationIn,Events,Conditions,WindDirDegrees,DateUTC
12:53 AM,71.1,61.0,70,29.69,10.0,NW,10.4,24.2,N/A,,Clear,310,2012-10-28 04:53:00
1:53 AM,71.1,61.0,70,29.69,10.0,NW,12.7,20.7,N/A,,Clear,310,2012-10-28 05:53:00
2:53 AM,71.1,62.1,73,29.69,10.0,WNW,11.5,19.6,N/A,,Clear,290,2012-10-28 06:53:00
3:53 AM,71.1,64.0,78,29.69,10.0,WNW,12.7,-,N/A,,Clear,300,2012-10-28 07:53:00
4:53 AM,71.1,64.9,81,29.70,10.0,WNW,13.8,20.7,N/A,,Partly Cloudy,290,2012-10-28 08:53:00
5:53 AM,71.1,66.0,84,29.70,10.0,WNW,9.2,-,N/A,,Partly Cloudy,300,2012-10-28 09:53:00
6:53 AM,70.0,66.0,87,29.71,10.0,WNW,10.4,-,N/A,,Partly Cloudy,290,2012-10-28 10:53:00
7:53 AM,70.0,66.0,87,29.73,10.0,WNW,9.2,-,N/A,,Partly Cloudy,290,2012-10-28 11:53:00
8:53 AM,72.0,64.9,78,29.74,10.0,WNW,12.7,20.7,N/A,,Partly Cloudy,290,2012-10-28 12:53:00
9:53 AM,75.0,63.0,66,29.75,10.0,WNW,15.0,21.9,N/A,,Partly Cloudy,290,2012-10-28 13:53:00
10:53 AM,75.9,64.0,67,29.76,10.0,WNW,15.0,24.2,N/A,,Mostly Cloudy,290,2012-10-28 14:53:00
11:53 AM,78.1,63.0,60,29.75,10.0,West,18.4,27.6,N/A,,Mostly Cloudy,280,2012-10-28 15:53:00
12:53 PM,79.0,62.1,56,29.72,10.0,West,15.0,27.6,N/A,,Scattered Clouds,280,2012-10-28 16:53:00
1:53 PM,79.0,62.1,56,29.70,10.0,West,15.0,-,N/A,,Scattered Clouds,270,2012-10-28 17:53:00
2:53 PM,81.0,60.1,49,29.68,10.0,WNW,18.4,26.5,N/A,,Scattered Clouds,290,2012-10-28 18:53:00
3:53 PM,80.1,59.0,48,29.68,10.0,WNW,17.3,26.5,N/A,,Scattered Clouds,290,2012-10-28 19:53:00
4:53 PM,79.0,57.0,47,29.68,10.0,WNW,15.0,25.3,N/A,,Scattered Clouds,290,2012-10-28 20:53:00
5:53 PM,78.1,57.0,48,29.69,10.0,West,13.8,20.7,N/A,,Scattered Clouds,270,2012-10-28 21:53:00
6:53 PM,75.0,57.0,53,29.71,10.0,West,15.0,21.9,N/A,,Partly Cloudy,280,2012-10-28 22:53:00
7:53 PM,73.0,57.0,57,29.73,10.0,West,15.0,24.2,N/A,,Partly Cloudy,280,2012-10-28 23:53:00
8:53 PM,72.0,57.0,59,29.75,10.0,West,11.5,23.0,N/A,,Scattered Clouds,280,2012-10-29 00:53:00
9:53 PM,71.1,55.9,59,29.77,10.0,WNW,10.4,-,N/A,,Overcast,300,2012-10-29 01:53:00
10:53 PM,71.1,55.0,57,29.79,10.0,WNW,16.1,28.8,N/A,,Mostly Cloudy,290,2012-10-29 02:53:00
11:53 PM,69.1,55.0,61,29.78,10.0,WNW,9.2,19.6,N/A,,Mostly Cloudy,300,2012-10-29 03:53:00